Steptoe Valley North, Nevada Weather observations

Data are for 10 minute period ending at time listed.
 Day   Time   Solar   Ave.   Ave.  Ave.  Vector  Max.   Baro.   Total    
  of    of     Rad.   Air    Rel.  Wind   Wind   Wind  Press.  Precip.   
Year   Day            Temp.  Hum.  Speed  Dir.   Gust                    
2017   (PST)  Kw/m2    F      %     mph   deg.    mph    mb.     in.     
-------------------------------------------------------------------------
 117   19:00   0.00   34.2    64   11.2   354    15.2   815.9    0.00 
 117   19:10   0.00   34.3    62   10.8   354    16.6   816.0    0.00 
 117   19:20   0.00   34.3    62   10.3   352    14.9   816.2    0.00 
 117   19:30   0.00   34.5    61   11.4   341    19.1   816.4    0.00 
 117   19:40   0.00   34.1    65   12.9   338    20.3   816.5    0.00 
 117   19:50   0.00   32.6    72    9.2   337    15.7   816.7    0.00 
 117   20:00   0.00   31.9    73    5.2   350     8.6   816.8    0.00 
 117   20:10   0.00   32.4    73    7.5   343    11.8   816.8    0.00 
 117   20:20   0.00   32.9    70    7.5   332    11.7   816.9    0.00 
 117   20:30   0.00   33.2    68    1.8   243     5.6   816.9    0.00 
 117   20:40   0.00   32.9    66    5.5   313     9.1   817.0    0.00 
 117   20:50   0.00   32.2    67    6.2   302    11.1   816.9    0.00 
 117   21:00   0.00   31.7    68    3.4   270     6.7   817.0    0.00 
 117   21:10   0.00   31.6    68    0.6   233     3.9   817.0    0.00 
 117   21:20   0.00   30.4    73    4.5    90     6.1   817.0    0.00 
 117   21:30   0.00   29.4    74    6.4   108     9.6   816.9    0.00 
 117   21:40   0.00   31.0    68    2.5    91     7.5   816.9    0.00 
 117   21:50   0.00   31.8    64    1.2    23     2.9   816.9    0.00 
 117   22:00   0.00   30.7    66    0.2     2     1.3   816.9    0.00 
 117   22:10   0.00   31.2    66    2.3    35     5.9   817.0    0.00 
 117   22:20   0.00   32.0    65    4.6    19     8.0   817.0    0.00 
 117   22:30   0.00   32.1    63    3.7   342     7.1   816.9    0.00 
 117   22:40   0.00   31.9    60    5.5   337    10.5   817.0    0.00 
 117   22:50   0.00   31.7    61    6.7   341     9.1   817.0    0.00 
 117   23:00   0.00   31.7    62    6.0   344     8.8   817.0    0.00 
 117   23:10   0.00   30.4    67    5.5   346     6.5   817.1    0.00 
 117   23:20   0.00   29.3    70    4.8   324     5.8   817.0    0.00 
 117   23:30   0.00   27.6    72    4.6   324     5.8   816.9    0.00 
 117   23:40   0.00   26.4    75    3.2   336     4.4   816.8    0.00 
 117   23:50   0.00   24.9    79    4.6    53     5.5   816.9    0.00 
 118    0:00   0.00   24.7    81    4.2    69     5.2   816.9    0.00 
 118    0:10   0.00   24.8    79    4.9    58     5.6   816.8    0.00 
 118    0:20   0.00   25.4    79    3.7    50     5.6   816.8    0.00 
 118    0:30   0.00   26.8    75    2.8    39     5.0   816.7    0.00 
 118    0:40   0.00   26.2    75    3.1    48     5.0   816.6    0.00 
 118    0:50   0.00   24.9    78    3.7    73     8.6   816.7    0.00 
 118    1:00   0.00   23.1    82    4.3    87     6.9   816.6    0.00 
 118    1:10   0.00   23.1    83    3.0    82     4.7   816.5    0.00 
 118    1:20   0.00   24.4    80    2.0    55     4.3   816.3    0.00 
 118    1:30   0.00   24.8    79    0.4    62     1.0   816.2    0.00 
 118    1:40   0.00   23.3    80    2.3    72     3.9   816.2    0.00 
 118    1:50   0.00   22.7    82    2.7    74     3.9   816.2    0.00 
 118    2:00   0.00   24.9    77    3.3    84     4.6   816.3    0.00 
 118    2:10   0.00   26.4    72    2.2    47     4.4   816.2    0.00 
 118    2:20   0.00   26.2    70    2.8   296     7.3   816.2    0.00 
 118    2:30   0.00   24.7    76    3.5   231     6.3   816.4    0.00 
 118    2:40   0.00   24.1    79    3.2   243     6.5   816.4    0.00 
 118    2:50   0.00   23.1    78    3.1   173     4.2   816.3    0.00 
 118    3:00   0.00   22.1    81    4.2   191     6.6   816.3    0.00 
 118    3:10   0.00   22.4    82    4.7   168     6.4   816.2    0.00 
 118    3:20   0.00   21.2    81    4.4   121     6.2   816.1    0.00 
 118    3:30   0.00   21.3    82    5.7   111     7.6   816.1    0.00 
 118    3:40   0.00   23.2    78    5.4   107     7.7   816.0    0.00 
 118    3:50   0.00   23.5    80    4.4    78     7.1   816.1    0.00 
 118    4:00   0.00   23.1    81    3.9    70     5.2   816.1    0.00 
 118    4:10   0.00   22.3    82    3.0    69     4.8   816.2    0.00 
 118    4:20   0.00   22.7    83    4.3    62     5.3   816.1    0.00 
 118    4:30   0.00   23.2    82    6.3    60     9.5   816.3    0.00 
 118    4:40   0.00   25.0    81    5.1    70     7.6   816.4    0.00 
 118    4:50   0.00   26.3    79    2.1    72     3.9   816.4    0.00 
 118    5:00   0.01   25.7    79    3.8    55     5.8   816.3    0.00 
 118    5:10   0.02   25.6    83    5.2   360     6.6   816.4    0.00 
 118    5:20   0.02   26.3    83    4.2   358     6.1   816.4    0.00 
 118    5:30   0.03   26.4    84    3.9   346     5.8   816.4    0.00 
 118    5:40   0.07   27.2    82    3.9    12     4.9   816.5    0.00 
 118    5:50   0.08   27.1    82    4.2    67     6.2   816.7    0.00 
 118    6:00   0.07   27.9    79    3.7    68     5.6   816.7    0.00 
 118    6:10   0.05   28.2    77    2.8     6     8.6   816.8    0.00 
 118    6:20   0.05   28.5    76    8.5   320    15.8   816.8    0.00 
 118    6:30   0.22   30.2    71   12.6   330    18.4   817.0    0.00 
 118    6:40   0.09   30.8    67   12.4   326    17.8   817.0    0.00 
 118    6:50   0.11   30.8    66   12.9   329    19.2   817.2    0.00 
 118    7:00   0.10   30.9    65   11.3   335    16.4   817.3    0.00 
 118    7:10   0.16   31.1    65    9.9   351    15.3   817.5    0.00 
 118    7:20   0.45   32.9    62   12.5   344    18.6   817.5    0.00 
 118    7:30   0.37   33.3    57   17.1   340    23.3   817.4    0.00 
 118    7:40   0.63   35.1    56   17.0   335    25.4   817.4    0.00 
 118    7:50   0.50   34.2    55   19.3   319    27.2   817.4    0.00 
 118    8:00   0.63   35.7    49   18.8   317    25.5   817.4    0.00 
 118    8:10   0.67   36.3    46   21.1   333    30.3   817.3    0.00 
 118    8:20   0.67   36.6    46   21.1   332    28.4   817.3    0.00 
 118    8:30   0.67   36.3    47   19.3   335    29.3   817.4    0.00 
 118    8:40   0.76   37.3    44   20.2   333    26.7   817.4    0.00 
 118    8:50   0.80   37.5    42   18.8   335    27.9   817.3    0.00 
 118    9:00   0.89   38.6    40   19.6   337    26.0   817.3    0.00 
 118    9:10   0.75   37.8    40   17.9   344    24.2   817.3    0.00 
 118    9:20   0.74   37.9    39   16.6   335    24.7   817.4    0.00 
 118    9:30   0.77   38.3    40   15.8   338    25.4   817.4    0.00 
 118    9:40   0.32   36.6    42   14.7   342    23.2   817.7    0.00 
 118    9:50   0.31   35.8    44   14.8   343    21.0   817.8    0.00 
 118   10:00   0.81   37.3    46   13.9   358    20.8   817.8    0.00 
 118   10:10   0.51   37.5    43   14.0   348    20.9   817.7    0.00 
 118   10:20   0.83   38.0    41   13.8   346    19.3   817.7    0.00 
 118   10:30   0.72   38.5    42   15.3   359    21.8   817.8    0.00 
 118   10:40   0.35   36.3    47   12.0     4    18.9   817.9    0.00 
 118   10:50   0.86   38.4    43   12.1   336    22.1   817.8    0.00 
 118   11:00   0.39   37.9    43   12.7   342    18.6   817.8    0.00 
 118   11:10   0.59   38.3    46   15.1   349    20.8   817.9    0.00 
 118   11:20   0.41   37.1    53   14.8   330    24.8   818.1    0.00 
 118   11:30   0.83   38.3    52   14.1   350    20.4   818.0    0.00 
 118   11:40   0.49   38.1    50   14.9   359    23.2   818.0    0.00 
 118   11:50   1.04   39.3    50   11.9   345    18.9   818.0    0.00 
 118   12:00   0.48   39.7    47   16.6   338    24.7   818.0    0.00 
 118   12:10   1.00   39.5    52   15.9   323    25.9   818.1    0.00 
 118   12:20   0.55   37.8    57   14.8   340    23.2   818.1    0.00 
 118   12:30   0.98   40.1    48   11.8   324    15.9   818.0    0.00 
 118   12:40   0.71   40.6    50   20.4   336    29.1   818.0    0.00 
 118   12:50   0.35   37.2    57   15.1   312    23.6   818.1    0.00 
 118   13:00   0.94   38.9    53   12.6   309    17.2   818.1    0.00 
 118   13:10   1.00   41.8    49   17.1   316    31.3   818.0    0.00 
 118   13:20   0.94   41.1    48   17.4   309    26.8   818.0    0.00 
 118   13:30   0.87   41.3    47   13.1   304    20.8   818.0    0.00 
 118   13:40   0.86   42.3    43   13.2   312    22.5   817.9    0.00 
 118   13:50   0.81   43.3    39   15.4   330    21.0   817.9    0.00 
 118   14:00   0.87   43.3    38   15.1   324    28.4   817.9    0.00 
 118   14:10   0.69   41.0    47   23.4   330    32.2   818.0    0.00 
 118   14:20   0.52   39.5    51   17.4   308    25.1   818.2    0.00 
 118   14:30   0.52   38.4    50   11.8   293    17.7   818.1    0.00 
 118   14:40   0.73   42.4    44    9.9   297    14.8   818.0    0.00 
 118   14:50   0.45   41.8    47   19.0   337    29.6   818.1    0.00 
 118   15:00   0.26   38.8    53   13.8   339    20.7   818.3    0.00 
 118   15:10   0.24   39.6    43   10.9   335    15.2   818.4    0.00 
 118   15:20   0.55   42.3    40   12.0   339    18.5   818.4    0.00 
 118   15:30   0.36   42.5    36   13.7   350    21.5   818.3    0.00 
 118   15:40   0.29   42.7    38   13.7   338    24.4   818.2    0.00 
 118   15:50   0.34   42.0    43   19.1   346    25.4   818.3    0.00 
 118   16:00   0.49   43.0    41   18.8   356    25.1   818.4    0.00 
 118   16:10   0.12   40.6    40   19.1   360    25.5   818.5    0.00 
 118   16:20   0.36   40.8    40   18.2   358    24.7   818.6    0.00 
 118   16:30   0.38   41.8    40   16.0   340    21.4   818.7    0.00 
 118   16:40   0.22   41.7    43   14.3   339    20.0   818.9    0.00 
 118   16:50   0.15   40.0    42   12.8   340    18.6   819.0    0.00 
 118   17:00   0.32   41.8    36   14.8   343    20.5   819.1    0.00 
 118   17:10   0.26   42.2    37   15.2   343    20.5   819.1    0.00 
 118   17:20   0.08   40.7    38   14.2   330    20.4   819.0    0.00 
 118   17:30   0.17   40.7    38   12.5   330    17.8   819.1    0.00 
 118   17:40   0.10   41.1    38   12.9   336    17.2   819.1    0.00 
 118   17:50   0.04   39.9    39   12.9   338    18.9   819.2    0.00 
 118   18:00   0.05   39.3    40   11.1   343    16.5   819.3    0.00 
 118   18:10   0.03   38.9    42    9.2   342    12.3   819.4    0.00 
 118   18:20   0.02   37.4    48    7.0   337     9.9   819.6    0.00 
 118   18:30   0.02   35.9    51    7.4   357    14.0   819.8    0.00 
 118   18:40   0.01   37.5    42   10.2    22    15.9   819.9    0.00 
 118   18:50   0.00   36.5    44    7.3     5    12.7   820.0    0.00 

Return to Steptoe Valley North graphs page.


Western Regional Climate Center,wrcc@dri.edu